Main page
METAR-TAF:

METAR-TAF

Airports :

Kemi-Tornio Airport

Kemi, Finland

latitude: 65-47N, longitude: 024-35E, elevation: 15 m

Current weather observation

The report was made 19 minutes ago, at 11:50 UTC
Wind 8 kt from the West/Northwest
Temperature 19°C
Humidity 88%
Pressure 1008 hPa
Visibility 10 km or more
Scattered clouds at a height of 800 ft
Broken clouds at a height of 2300 ft
Overcast at a height of 3100 ft

METAR: EFKE 121150Z AUTO 29008KT 9999 SCT008 BKN023 OVC031 19/17 Q1008

Time: 15:09 (12:09 UTC)

Forecast

The report was made 34 minutes ago, at 11:35 UTC
Forecast valid from 12 at 12 UTC to 12 at 15 UTC
Wind 5 kt from the West/Northwest
Visibility 10 km or more
Few clouds at a height of 1200 ft
Broken clouds at a height of 3000 ft
Temporary
from 12 at 12 UTC to 12 at 13 UTC
Broken clouds at a height of 900 ft

TAF: EFKE 121135Z 1212/1215 30005KT 9999 FEW012 BKN030 TEMPO 1212/1213 BKN009

Weather observations and forecasts of more than 4000 airports (METAR and TAF reports).

The available stations are represented by yellow and red dots on the map.

Hover mouse over dot to see the name of the station.

Then click to see weather observations and forecasts.

To change the map : click on the green buttons with a black cross to zoom in, on the green button with a dash to zoom out, or on the green arrows for adjacent maps.


METAR-TAF: